aviador You're here:

TBPB Decoded Metar

BRIDGETOWN in BARBADOS
Report Time2018-06-25 06:00:00
UTC Time2018-06-25 06:24:53
Flight Rules vfr VFR
Wind080° at 18 kt
W.Decomp.*RWY 09: 17.9 kt HW 1.6 kt RCW
W.Rank080° ranks 2
Current wind is above 080° avg. (13.8)
Visibility9999 m
Phenomena:N/A
Clouds:Scattered 018 Hf
Expected CloudBase > 1,600 ft AGL from Temp-Dew spread
CeilingNone
Temp27°C (ISA +12)
Dew Point23°C (79% RH)
Heat Index29.6°C
AAT25.8°C
QNH1015 hPa
Density Alt1,896 ft
Elevation171 ft
Report Wrong Elevation
Raw Report
TBPB 250600Z 08018KT 9999 SCT018 27/23 Q1015 NOSIG=

Extra information for TBPB:More info

Metar Taf Metar & Taf Last 4 Metars F.Rules Stats Wind Profile Meteogram Temp Stats Airport Information Weather charts Add Link Nearby VenuesMetar ALERT Operation Metar Decoded Social comments